createdAt,value
2023-01-19T00:04:29.993Z,28.80
2023-01-19T00:09:38.731Z,27.50
2023-01-19T00:14:46.807Z,34.40
2023-01-19T00:19:54.806Z,30.60
2023-01-19T00:25:02.972Z,24.00
2023-01-19T00:30:13.048Z,31.60
2023-01-19T00:35:21.638Z,40.30
2023-01-19T00:40:30.210Z,32.10
2023-01-19T00:45:38.706Z,33.70
2023-01-19T00:50:47.016Z,38.90
2023-01-19T00:55:55.614Z,32.30
2023-01-19T01:01:05.159Z,29.80
2023-01-19T01:06:13.347Z,32.70
2023-01-19T01:11:21.307Z,40.10
2023-01-19T01:16:29.672Z,36.80
2023-01-19T01:21:37.863Z,40.10
2023-01-19T01:26:46.446Z,42.60
2023-01-19T01:31:54.498Z,39.10
2023-01-19T01:37:03.379Z,42.10
2023-01-19T01:42:20.344Z,38.10
2023-01-19T01:47:38.650Z,36.40
2023-01-19T01:53:06.923Z,38.70
2023-01-19T01:58:16.901Z,38.20
2023-01-19T02:03:27.383Z,41.30
2023-01-19T02:08:57.843Z,43.10
2023-01-19T02:14:07.594Z,36.20
2023-01-19T02:19:19.838Z,46.70
2023-01-19T02:29:36.964Z,43.60
2023-01-19T02:34:45.532Z,50.10
2023-01-19T02:39:57.872Z,46.50
2023-01-19T02:45:07.454Z,43.20
2023-01-19T02:50:46.742Z,50.20
2023-01-19T02:56:02.272Z,54.40
2023-01-19T03:01:17.835Z,60.40
2023-01-19T03:06:43.582Z,49.70
2023-01-19T03:12:04.139Z,46.10
2023-01-19T03:17:16.881Z,45.40
2023-01-19T03:22:28.300Z,48.80
2023-01-19T03:27:42.700Z,44.80
2023-01-19T03:32:54.776Z,47.90
2023-01-19T03:38:07.327Z,47.00
2023-01-19T03:43:17.988Z,40.30
2023-01-19T03:48:26.432Z,34.40
2023-01-19T03:53:35.028Z,46.00
2023-01-19T03:58:43.557Z,42.40
2023-01-19T04:03:52.416Z,40.50
2023-01-19T04:09:00.836Z,39.50
2023-01-19T04:14:09.227Z,39.50
2023-01-19T04:19:17.784Z,38.60
2023-01-19T04:24:26.392Z,30.80
2023-01-19T04:29:34.591Z,33.80
2023-01-19T04:34:42.897Z,34.50
2023-01-19T04:39:51.621Z,35.10
2023-01-19T04:45:00.038Z,32.00
2023-01-19T04:50:13.971Z,41.80
2023-01-19T04:55:22.218Z,25.20
2023-01-19T05:00:30.455Z,26.20
2023-01-19T05:05:38.783Z,26.70
2023-01-19T05:10:47.250Z,26.20
2023-01-19T05:15:55.688Z,29.40
2023-01-19T05:21:05.274Z,26.00
2023-01-19T05:26:13.887Z,26.90
2023-01-19T05:31:22.290Z,30.40
2023-01-19T05:36:31.904Z,29.00
2023-01-19T05:41:40.287Z,34.10
2023-01-19T05:46:49.051Z,24.30
2023-01-19T05:51:57.951Z,27.50
2023-01-19T05:57:06.281Z,28.20
2023-01-19T06:02:15.435Z,29.80
2023-01-19T06:07:24.497Z,29.60
2023-01-19T06:12:34.150Z,34.30
2023-01-19T06:17:42.973Z,29.00
2023-01-19T06:22:51.757Z,30.60
2023-01-19T06:28:00.171Z,28.50
2023-01-19T06:33:08.638Z,34.30
2023-01-19T06:38:18.960Z,27.70
2023-01-19T06:43:27.469Z,38.60
2023-01-19T06:48:36.058Z,56.50
2023-01-19T06:53:44.443Z,63.50
2023-01-19T06:58:53.512Z,52.00
2023-01-19T07:04:01.754Z,52.40
2023-01-19T07:09:12.470Z,42.60
2023-01-19T07:14:21.308Z,39.30
2023-01-19T07:19:29.681Z,41.90
2023-01-19T07:24:38.434Z,36.40
2023-01-19T07:29:46.895Z,35.40
2023-01-19T07:34:55.377Z,37.00
2023-01-19T07:40:03.964Z,36.70
2023-01-19T07:45:14.636Z,30.80
2023-01-19T07:50:26.192Z,31.70
2023-01-19T07:55:35.854Z,35.60
2023-01-19T08:00:45.219Z,38.00
2023-01-19T08:05:57.387Z,38.70
2023-01-19T08:11:05.712Z,53.10
2023-01-19T08:16:13.976Z,40.90
2023-01-19T08:21:22.739Z,40.50
2023-01-19T08:26:33.931Z,35.00
2023-01-19T08:31:42.557Z,35.40
2023-01-19T08:36:50.809Z,28.00
2023-01-19T08:42:01.108Z,29.60
2023-01-19T08:47:09.466Z,25.50
2023-01-19T08:52:18.280Z,29.70
2023-01-19T08:57:26.482Z,27.50
2023-01-19T09:02:35.315Z,31.40
2023-01-19T09:07:45.080Z,33.30
2023-01-19T09:12:53.431Z,29.40
2023-01-19T09:18:02.832Z,27.50
2023-01-19T09:23:11.132Z,28.40
2023-01-19T09:28:20.335Z,30.50
2023-01-19T09:33:30.025Z,34.40
2023-01-19T09:38:38.763Z,30.10
2023-01-19T09:43:51.634Z,29.70
2023-01-19T09:49:05.285Z,32.60
2023-01-19T09:54:17.596Z,33.10
2023-01-19T09:59:27.808Z,29.30
2023-01-19T10:04:39.963Z,26.10
2023-01-19T10:10:04.315Z,29.80
2023-01-19T10:15:23.492Z,29.40
2023-01-19T10:20:35.089Z,28.90
2023-01-19T10:25:44.296Z,30.80
2023-01-19T10:30:55.355Z,33.90
2023-01-19T10:36:08.667Z,34.40
2023-01-19T10:41:24.627Z,32.30
2023-01-19T10:46:39.072Z,30.60
2023-01-19T10:51:51.507Z,30.10
2023-01-19T10:57:03.318Z,37.20
2023-01-19T11:02:24.218Z,36.10
2023-01-19T11:07:35.010Z,39.30
2023-01-19T11:12:47.469Z,37.50
2023-01-19T11:23:26.816Z,34.50
2023-01-19T11:28:38.366Z,37.50
2023-01-19T11:33:52.734Z,41.40
2023-01-19T11:39:04.673Z,35.00
2023-01-19T11:44:21.359Z,37.50
2023-01-19T11:49:35.490Z,40.50
2023-01-19T11:54:58.561Z,35.80
2023-01-19T12:00:22.273Z,36.80
2023-01-19T12:05:36.101Z,31.20
2023-01-19T12:10:46.867Z,41.80
2023-01-19T12:15:59.937Z,40.50
2023-01-19T12:21:09.331Z,40.90
2023-01-19T12:26:35.938Z,35.60
2023-01-19T12:31:44.566Z,54.30
2023-01-19T12:36:54.139Z,43.70
2023-01-19T12:42:17.811Z,46.70
2023-01-19T12:47:27.640Z,48.10
2023-01-19T12:52:41.846Z,44.90
2023-01-19T12:58:06.237Z,47.10
2023-01-19T13:03:59.549Z,37.90
2023-01-19T13:09:31.942Z,38.60
2023-01-19T13:19:55.554Z,42.70
2023-01-19T13:25:15.302Z,37.90
2023-01-19T13:30:28.731Z,43.00
2023-01-19T13:35:37.280Z,46.80
2023-01-19T13:40:45.645Z,43.80
2023-01-19T13:45:55.699Z,46.80
2023-01-19T13:51:06.802Z,56.60
2023-01-19T13:56:25.210Z,55.30
2023-01-19T14:01:33.918Z,51.30
2023-01-19T14:06:49.700Z,49.50
2023-01-19T14:12:13.576Z,81.80
2023-01-19T14:17:32.801Z,57.90
2023-01-19T14:22:46.560Z,50.30
2023-01-19T14:28:16.120Z,57.60
2023-01-19T14:33:42.671Z,56.40
2023-01-19T14:38:53.580Z,137.10
2023-01-19T14:44:03.587Z,99.10
2023-01-19T14:49:22.374Z,66.00
2023-01-19T14:54:36.591Z,76.20
2023-01-19T14:59:50.497Z,78.40
2023-01-19T15:04:59.065Z,89.00
2023-01-19T15:10:13.089Z,113.00
2023-01-19T15:15:26.544Z,94.60
2023-01-19T15:20:35.517Z,58.10
2023-01-19T15:25:43.920Z,94.70
2023-01-19T15:30:54.245Z,112.90
2023-01-19T15:36:02.648Z,148.10
2023-01-19T15:41:15.578Z,189.50
2023-01-19T15:46:25.872Z,191.90
2023-01-19T15:51:34.996Z,88.10
2023-01-19T15:56:44.301Z,74.40
2023-01-19T16:01:53.700Z,68.10
2023-01-19T16:07:02.557Z,79.80
2023-01-19T16:12:11.639Z,85.90
2023-01-19T16:17:20.532Z,96.00
2023-01-19T16:22:29.430Z,87.20
2023-01-19T16:27:37.797Z,143.50
2023-01-19T16:32:46.164Z,168.60
2023-01-19T16:37:55.941Z,211.40
2023-01-19T16:43:04.533Z,171.40
2023-01-19T16:48:12.831Z,99.50
2023-01-19T16:53:21.115Z,68.40
2023-01-19T16:58:29.564Z,67.00
2023-01-19T17:03:38.788Z,94.50
2023-01-19T17:08:47.734Z,95.60
2023-01-19T17:13:58.088Z,79.10
2023-01-19T17:19:08.265Z,84.00
2023-01-19T17:24:17.360Z,90.80
2023-01-19T17:29:27.916Z,108.60
2023-01-19T17:34:36.423Z,96.80
2023-01-19T17:39:45.031Z,79.40
2023-01-19T17:44:53.206Z,71.60
2023-01-19T17:50:02.037Z,62.40
2023-01-19T17:55:11.712Z,58.30
2023-01-19T18:00:22.221Z,54.70
2023-01-19T18:05:30.661Z,81.30
2023-01-19T18:10:39.090Z,82.50
2023-01-19T18:15:47.883Z,122.60
2023-01-19T18:20:59.378Z,165.80
2023-01-19T18:26:09.114Z,258.70
2023-01-19T18:31:20.111Z,323.80
2023-01-19T18:36:28.769Z,266.70
2023-01-19T18:41:42.224Z,163.00
2023-01-19T18:46:50.700Z,124.20
2023-01-19T18:51:59.557Z,108.80
2023-01-19T18:57:07.722Z,86.80
2023-01-19T19:02:16.974Z,90.50
2023-01-19T19:07:25.622Z,141.20
2023-01-19T19:12:34.212Z,252.20
2023-01-19T19:17:42.789Z,171.80
2023-01-19T19:22:52.221Z,274.00
2023-01-19T19:28:00.958Z,141.10
2023-01-19T19:33:09.514Z,114.50
2023-01-19T19:38:18.128Z,101.50
2023-01-19T19:43:26.745Z,85.40
2023-01-19T19:48:38.882Z,67.10
2023-01-19T19:53:50.822Z,76.90
2023-01-19T20:04:12.249Z,74.00
2023-01-19T20:09:20.615Z,150.70
2023-01-19T20:14:29.622Z,315.90
2023-01-19T20:19:38.153Z,263.50
2023-01-19T20:24:46.439Z,364.20
2023-01-19T20:29:58.517Z,182.80
2023-01-19T20:35:08.194Z,138.70
2023-01-19T20:40:17.122Z,267.70
2023-01-19T20:45:26.654Z,270.60
2023-01-19T20:50:35.088Z,182.80
2023-01-19T20:55:43.595Z,363.70
2023-01-19T21:00:52.660Z,290.50
2023-01-19T21:06:00.932Z,261.50
2023-01-19T21:11:10.050Z,239.00
2023-01-19T21:16:19.152Z,186.50
2023-01-19T21:21:31.415Z,168.10
2023-01-19T21:26:42.082Z,97.70
2023-01-19T21:31:50.299Z,63.20
2023-01-19T21:36:58.809Z,58.50
2023-01-19T21:42:07.106Z,66.90
2023-01-19T21:47:15.443Z,97.40
2023-01-19T21:52:23.646Z,116.10
2023-01-19T21:57:31.973Z,132.90
2023-01-19T22:02:41.139Z,135.40
2023-01-19T22:07:50.842Z,119.40
2023-01-19T22:12:59.023Z,144.70
2023-01-19T22:18:07.578Z,114.20
2023-01-19T22:23:16.351Z,116.10
2023-01-19T22:28:24.900Z,105.00
2023-01-19T22:33:34.048Z,166.40
2023-01-19T22:38:43.118Z,174.20
2023-01-19T22:43:52.765Z,130.10
2023-01-19T22:49:01.322Z,89.20
2023-01-19T22:54:10.265Z,106.60
2023-01-19T22:59:18.787Z,71.20
2023-01-19T23:04:27.121Z,55.90
2023-01-19T23:09:35.992Z,42.50
2023-01-19T23:14:44.403Z,41.10
2023-01-19T23:19:53.098Z,43.40
2023-01-19T23:25:01.743Z,50.10
2023-01-19T23:30:13.107Z,35.20
2023-01-19T23:35:21.962Z,42.00
2023-01-19T23:40:30.303Z,43.20
2023-01-19T23:45:39.277Z,45.30
2023-01-19T23:50:47.632Z,39.80
2023-01-19T23:55:55.770Z,36.90
